createdAt,value
2024-05-09T00:02:27.656Z,93.5
2024-05-09T00:09:46.635Z,93.5
2024-05-09T00:14:54.014Z,93.5
2024-05-09T00:20:01.470Z,93.5
2024-05-09T00:25:08.710Z,92.5
2024-05-09T00:30:21.351Z,93.5
2024-05-09T00:35:23.570Z,93
2024-05-09T00:40:35.585Z,92.5
2024-05-09T00:45:38.211Z,91.5
2024-05-09T00:50:45.635Z,91.5
2024-05-09T00:55:52.905Z,92.5
2024-05-09T01:01:00.235Z,92
2024-05-09T01:06:07.560Z,93
2024-05-09T01:11:14.951Z,93.5
2024-05-09T01:16:22.274Z,93.5
2024-05-09T01:21:29.635Z,93.5
2024-05-09T01:26:37.054Z,94.5
2024-05-09T01:31:44.432Z,93.5
2024-05-09T01:36:51.696Z,93.5
2024-05-09T01:41:59.058Z,93.5
2024-05-09T01:47:06.531Z,93
2024-05-09T01:52:13.784Z,94
2024-05-09T01:57:21.167Z,94
2024-05-09T02:02:28.545Z,94
2024-05-09T02:07:35.838Z,94
2024-05-09T02:12:43.193Z,94
2024-05-09T02:17:50.801Z,94
2024-05-09T02:22:57.916Z,94
2024-05-09T02:28:05.280Z,94
2024-05-09T02:33:13.687Z,94.5
2024-05-09T02:38:20.039Z,94.5
2024-05-09T02:43:27.333Z,94
2024-05-09T02:48:34.741Z,94.5
2024-05-09T02:53:42.068Z,94.5
2024-05-09T02:58:49.447Z,94.5
2024-05-09T03:03:56.934Z,95
2024-05-09T03:09:04.119Z,95
2024-05-09T03:14:11.492Z,94.5
2024-05-09T03:19:19.001Z,94.5
2024-05-09T03:24:26.193Z,94.5
2024-05-09T03:29:33.645Z,94.5
2024-05-09T03:34:40.906Z,95
2024-05-09T03:39:48.247Z,95
2024-05-09T03:44:55.617Z,94
2024-05-09T03:50:05.471Z,95
2024-05-09T03:55:10.336Z,95
2024-05-09T04:00:21.890Z,95
2024-05-09T04:05:25.093Z,94
2024-05-09T04:10:33.273Z,94.5
2024-05-09T04:15:39.772Z,94
2024-05-09T04:20:47.140Z,94
2024-05-09T04:25:54.473Z,94
2024-05-09T04:31:01.826Z,94
2024-05-09T04:36:09.173Z,94
2024-05-09T04:41:16.566Z,94.5
2024-05-09T04:46:23.909Z,93.5
2024-05-09T04:51:31.290Z,93
2024-05-09T04:56:38.653Z,90.5
2024-05-09T05:01:46.117Z,73.5
2024-05-09T05:06:53.325Z,68
2024-05-09T05:12:00.782Z,60.5
2024-05-09T05:17:08.110Z,72
2024-05-09T05:22:15.386Z,78.5
2024-05-09T05:27:22.748Z,79.5
2024-05-09T05:32:30.228Z,76.5
2024-05-09T05:37:37.474Z,56.5
2024-05-09T05:42:44.820Z,53
2024-05-09T05:47:52.229Z,49
2024-05-09T05:52:59.623Z,49.5
2024-05-09T05:58:06.889Z,46
2024-05-09T06:03:14.696Z,44
2024-05-09T06:08:21.782Z,41.5
2024-05-09T06:13:28.952Z,46.5
2024-05-09T06:18:36.479Z,46
2024-05-09T06:23:43.802Z,46.5
2024-05-09T06:28:51.061Z,43
2024-05-09T06:33:58.498Z,42
2024-05-09T06:39:05.767Z,41
2024-05-09T06:44:13.140Z,45.5
2024-05-09T06:49:20.520Z,44
2024-05-09T06:54:27.862Z,52
2024-05-09T06:59:35.219Z,47
2024-05-09T07:04:42.575Z,47
2024-05-09T07:09:49.899Z,46
2024-05-09T07:14:57.263Z,49.5
2024-05-09T07:20:06.909Z,51.5
2024-05-09T07:25:11.989Z,43.5
2024-05-09T07:30:23.480Z,47
2024-05-09T07:35:26.848Z,48
2024-05-09T07:40:35.841Z,49
2024-05-09T07:45:47.492Z,46
2024-05-09T07:55:56.725Z,48.5
2024-05-09T08:01:03.672Z,51
2024-05-09T08:06:10.863Z,52.5
2024-05-09T08:11:18.221Z,50.5
2024-05-09T08:16:25.630Z,52
2024-05-09T08:21:32.942Z,55.5
2024-05-09T08:26:40.279Z,54.5
2024-05-09T08:31:47.640Z,55
2024-05-09T08:36:55.136Z,57.5
2024-05-09T08:42:02.354Z,56.5
2024-05-09T08:47:09.742Z,57
2024-05-09T08:52:17.080Z,64
2024-05-09T08:57:24.435Z,70
2024-05-09T09:02:31.998Z,67
2024-05-09T09:07:39.135Z,68.5
2024-05-09T09:12:46.561Z,72
2024-05-09T09:17:53.894Z,71.5
2024-05-09T09:23:01.237Z,69
2024-05-09T09:28:09.160Z,68.5
2024-05-09T09:33:15.953Z,64.5
2024-05-09T09:38:23.289Z,66
2024-05-09T09:43:30.646Z,68
2024-05-09T09:48:38.080Z,64
2024-05-09T09:53:45.356Z,63.5
2024-05-09T09:58:52.790Z,67
2024-05-09T10:04:00.140Z,72.5
2024-05-09T10:09:07.431Z,65.5
2024-05-09T10:14:14.789Z,66
2024-05-09T10:19:22.218Z,64.5
2024-05-09T10:24:29.537Z,66
2024-05-09T10:29:36.862Z,61
2024-05-09T10:34:44.275Z,58
2024-05-09T10:39:51.657Z,60
2024-05-09T10:44:58.931Z,60
2024-05-09T10:50:12.645Z,60
2024-05-09T10:55:13.663Z,63
2024-05-09T11:00:23.579Z,58.5
2024-05-09T11:05:28.458Z,60
2024-05-09T11:10:35.763Z,59
2024-05-09T11:15:43.081Z,61.5
2024-05-09T11:20:50.444Z,58.5
2024-05-09T11:25:57.785Z,56
2024-05-09T11:31:05.280Z,57.5
2024-05-09T11:36:12.493Z,61
2024-05-09T11:41:19.871Z,61.5
2024-05-09T11:46:27.242Z,56.5
2024-05-09T11:51:34.600Z,55.5
2024-05-09T11:56:41.927Z,54
2024-05-09T12:01:50.176Z,57
2024-05-09T12:06:56.719Z,57.5
2024-05-09T12:12:04.022Z,55.5
2024-05-09T12:22:18.744Z,59.5
2024-05-09T12:27:26.065Z,55.5
2024-05-09T12:32:33.456Z,57
2024-05-09T12:37:40.785Z,61
2024-05-09T12:42:48.168Z,56
2024-05-09T12:47:55.605Z,56.5
2024-05-09T12:53:03.469Z,53
2024-05-09T12:58:10.324Z,55.5
2024-05-09T13:03:17.633Z,57.5
2024-05-09T13:08:24.959Z,53
2024-05-09T13:13:32.276Z,56
2024-05-09T13:18:39.718Z,57.5
2024-05-09T13:23:47.014Z,55
2024-05-09T13:28:54.367Z,57.5
2024-05-09T13:34:01.823Z,50
2024-05-09T13:39:09.105Z,52.5
2024-05-09T13:44:16.454Z,52
2024-05-09T13:49:23.835Z,49.5
2024-05-09T13:54:31.153Z,56.5
2024-05-09T13:59:38.507Z,58.5
2024-05-09T14:04:45.954Z,58.5
2024-05-09T14:09:53.246Z,58.5
2024-05-09T14:15:00.615Z,57.5
2024-05-09T14:20:11.660Z,57.5
2024-05-09T14:25:15.333Z,54.5
2024-05-09T14:30:26.210Z,57.5
2024-05-09T14:35:30.027Z,59
2024-05-09T14:40:40.054Z,55
2024-05-09T14:45:44.765Z,53.5
2024-05-09T14:50:52.088Z,55
2024-05-09T14:55:59.488Z,56.5
2024-05-09T15:01:06.857Z,58.5
2024-05-09T15:06:14.197Z,57.5
2024-05-09T15:11:21.530Z,55
2024-05-09T15:16:28.881Z,56.5
2024-05-09T15:21:36.234Z,55.5
2024-05-09T15:26:43.578Z,61
2024-05-09T15:31:50.970Z,63.5
2024-05-09T15:36:58.336Z,60
2024-05-09T15:42:05.641Z,61.5
2024-05-09T15:47:13.004Z,61
2024-05-09T15:52:20.389Z,59.5
2024-05-09T15:57:27.723Z,62.5
2024-05-09T16:02:35.243Z,64.5
2024-05-09T16:07:42.479Z,63.5
2024-05-09T16:12:49.802Z,63.5
2024-05-09T16:17:57.220Z,63.5
2024-05-09T16:23:04.506Z,65.5
2024-05-09T16:28:11.909Z,66.5
2024-05-09T16:33:19.759Z,66.5
2024-05-09T16:38:26.619Z,65.5
2024-05-09T16:48:41.399Z,65.5
2024-05-09T16:53:48.651Z,62.5
2024-05-09T16:58:56.012Z,62
2024-05-09T17:04:03.621Z,63
2024-05-09T17:09:11.621Z,66.5
2024-05-09T17:14:18.096Z,66
2024-05-09T17:19:25.532Z,67.5
2024-05-09T17:24:32.823Z,66.5
2024-05-09T17:29:40.156Z,68
2024-05-09T17:36:59.282Z,68
2024-05-09T17:42:06.590Z,66
2024-05-09T17:47:13.962Z,69.5
2024-05-09T17:52:21.378Z,70.5
2024-05-09T17:57:28.645Z,71.5
2024-05-09T18:02:36.032Z,70.5
2024-05-09T18:07:43.408Z,69
2024-05-09T18:12:50.795Z,69.5
2024-05-09T18:17:58.140Z,69.5
2024-05-09T18:23:05.493Z,70
2024-05-09T18:28:12.860Z,72
2024-05-09T18:33:20.206Z,74.5
2024-05-09T18:38:27.511Z,74.5
2024-05-09T18:43:37.973Z,75
2024-05-09T18:48:42.298Z,76
2024-05-09T18:53:49.577Z,76.5
2024-05-09T18:58:56.928Z,76.5
2024-05-09T19:04:04.511Z,77
2024-05-09T19:09:11.650Z,77.5
2024-05-09T19:14:19.040Z,77.5
2024-05-09T19:19:26.440Z,78
2024-05-09T19:24:33.807Z,78
2024-05-09T19:29:41.066Z,78
2024-05-09T19:34:48.431Z,78.5
2024-05-09T19:39:55.873Z,79.5
2024-05-09T19:45:03.154Z,79.5
2024-05-09T19:50:11.116Z,80
2024-05-09T19:55:17.908Z,80.5
2024-05-09T20:00:29.090Z,81
2024-05-09T20:05:33.086Z,81
2024-05-09T20:10:39.951Z,81.5
2024-05-09T20:15:47.312Z,82
2024-05-09T20:20:54.648Z,82.5
2024-05-09T20:26:02.016Z,82
2024-05-09T20:31:09.375Z,82
2024-05-09T20:36:16.716Z,82
2024-05-09T20:41:24.084Z,82
2024-05-09T20:46:31.484Z,82
2024-05-09T20:51:38.809Z,82
2024-05-09T20:56:46.159Z,81.5
2024-05-09T21:01:53.554Z,82.5
2024-05-09T21:07:00.906Z,81.5
2024-05-09T21:12:08.230Z,82
2024-05-09T21:17:15.668Z,82
2024-05-09T21:22:22.938Z,81
2024-05-09T21:27:30.301Z,82
2024-05-09T21:32:37.736Z,82
2024-05-09T21:37:45.029Z,82
2024-05-09T21:42:52.379Z,81
2024-05-09T21:47:59.835Z,82
2024-05-09T21:53:07.332Z,81.5
2024-05-09T21:58:14.579Z,82
2024-05-09T22:03:21.886Z,81.5
2024-05-09T22:08:29.186Z,82.5
2024-05-09T22:13:36.542Z,82.5
2024-05-09T22:18:43.931Z,84
2024-05-09T22:23:51.252Z,84.5
2024-05-09T22:28:58.656Z,85
2024-05-09T22:34:06.111Z,85.5
2024-05-09T22:39:13.357Z,85.5
2024-05-09T22:44:20.690Z,85.5
2024-05-09T22:49:28.060Z,86.5
2024-05-09T22:54:35.410Z,85.5
2024-05-09T22:59:42.782Z,86
2024-05-09T23:04:50.270Z,86.5
2024-05-09T23:09:57.510Z,87
2024-05-09T23:15:04.879Z,86.5
2024-05-09T23:20:14.668Z,86
2024-05-09T23:25:20.364Z,87
2024-05-09T23:30:29.434Z,87
2024-05-09T23:35:34.291Z,86.5
2024-05-09T23:40:42.381Z,87
2024-05-09T23:45:49.005Z,87
2024-05-09T23:50:56.320Z,87.5
2024-05-09T23:56:03.690Z,87.5
